Time;durP1;ratioP1;P1;durP2;ratioP2;P2;SDS_P1;SDS_P2;PMS_P1;PMS_P2;Temp;Humidity;BMP_temperature;BMP_pressure;BME280_temperature;BME280_humidity;BME280_pressure;Samples;Min_cycle;Max_cycle;Signal;HPM_P1;HPM_P2
2021/10/25 00:02:18;;;;;;;10.23;8.60;;;11.90;55.70;;;;;;5048747;28;20220;-51
2021/10/25 00:04:44;;;;;;;8.90;7.97;;;11.80;55.70;;;;;;5044662;28;20240;-51
2021/10/25 00:07:10;;;;;;;10.67;7.70;;;11.70;56.20;;;;;;5053150;28;20180;-48
2021/10/25 00:09:36;;;;;;;11.60;8.30;;;11.70;56.40;;;;;;5043363;28;20188;-51
2021/10/25 00:12:01;;;;;;;9.87;8.40;;;11.60;56.40;;;;;;5049646;28;20192;-50
2021/10/25 00:14:27;;;;;;;11.53;9.90;;;11.50;56.50;;;;;;5046745;28;20462;-51
2021/10/25 00:16:53;;;;;;;18.00;11.53;;;11.30;56.70;;;;;;5048454;28;20277;-48
2021/10/25 00:19:19;;;;;;;21.80;9.63;;;11.00;57.40;;;;;;5045029;28;20232;-47
2021/10/25 00:21:45;;;;;;;11.53;8.30;;;10.90;57.90;;;;;;5049868;28;20563;-50
2021/10/25 00:24:11;;;;;;;10.30;9.23;;;10.80;58.10;;;;;;5048705;28;20439;-51
2021/10/25 00:26:37;;;;;;;11.10;8.47;;;10.80;58.40;;;;;;5054355;28;20223;-51
2021/10/25 00:29:03;;;;;;;11.07;7.70;;;10.70;58.40;;;;;;5050493;28;20188;-48
2021/10/25 00:31:29;;;;;;;9.20;8.07;;;10.60;58.20;;;;;;5052865;28;20280;-48
2021/10/25 00:33:55;;;;;;;9.40;7.80;;;10.50;58.30;;;;;;5052802;28;20438;-48
2021/10/25 00:36:21;;;;;;;9.67;8.77;;;10.10;59.00;;;;;;5050619;28;20195;-49
2021/10/25 00:38:46;;;;;;;9.13;8.23;;;10.10;59.50;;;;;;5046654;28;20442;-50
2021/10/25 00:41:13;;;;;;;9.93;8.17;;;10.20;59.40;;;;;;5066414;28;20192;-51
2021/10/25 00:43:38;;;;;;;16.90;9.13;;;10.20;59.40;;;;;;5039340;28;20225;-51
2021/10/25 00:46:06;;;;;;;10.57;8.83;;;10.40;59.40;;;;;;5050874;28;20467;-48
2021/10/25 00:48:33;;;;;;;13.07;9.73;;;10.40;58.90;;;;;;5042204;28;20200;-48
2021/10/25 00:50:59;;;;;;;9.13;7.90;;;10.20;59.30;;;;;;5042134;28;20486;-51
2021/10/25 00:53:24;;;;;;;10.03;8.80;;;10.00;59.90;;;;;;5041695;28;20799;-47
2021/10/25 00:55:51;;;;;;;14.43;8.60;;;10.00;59.80;;;;;;5039411;28;20591;-51
2021/10/25 00:58:17;;;;;;;9.33;8.33;;;10.20;59.80;;;;;;5036894;28;20189;-49
2021/10/25 01:00:43;;;;;;;9.17;8.17;;;10.10;59.70;;;;;;5048805;28;20443;-50
2021/10/25 01:03:08;;;;;;;10.07;8.20;;;10.20;59.80;;;;;;5040270;28;21036;-52
2021/10/25 01:05:34;;;;;;;9.10;8.20;;;10.30;59.40;;;;;;5045057;28;20221;-48
2021/10/25 01:08:02;;;;;;;9.57;7.60;;;10.50;59.30;;;;;;5053860;28;20197;-50
2021/10/25 01:10:28;;;;;;;10.67;8.47;;;10.50;58.90;;;;;;5073824;28;20277;-49
2021/10/25 01:12:56;;;;;;;11.57;8.90;;;10.30;59.10;;;;;;5055313;28;20438;-52
2021/10/25 01:15:21;;;;;;;11.73;8.33;;;10.10;59.50;;;;;;5041154;28;20490;-48
2021/10/25 01:17:53;;;;;;;13.20;8.90;;;10.10;59.80;;;;;;5048831;28;20474;-50
2021/10/25 01:20:19;;;;;;;11.87;9.00;;;10.10;59.90;;;;;;5047653;28;20228;-52
2021/10/25 01:22:44;;;;;;;9.43;8.23;;;10.00;59.90;;;;;;5046432;28;20486;-52
2021/10/25 01:25:10;;;;;;;10.53;9.43;;;10.00;59.90;;;;;;5042455;28;20235;-51
2021/10/25 01:27:35;;;;;;;10.47;9.00;;;9.90;61.20;;;;;;5049070;28;20195;-51
2021/10/25 01:30:02;;;;;;;11.07;9.40;;;9.90;61.60;;;;;;5047114;28;20555;-51
2021/10/25 01:32:28;;;;;;;12.10;9.40;;;9.90;61.70;;;;;;5046923;28;20196;-48
2021/10/25 01:34:53;;;;;;;11.77;8.97;;;9.90;61.30;;;;;;5045396;28;20545;-51
2021/10/25 01:37:19;;;;;;;10.23;9.17;;;10.00;60.20;;;;;;5041094;28;20193;-51
2021/10/25 01:39:44;;;;;;;10.50;9.30;;;10.10;59.80;;;;;;5047580;28;20212;-48
2021/10/25 01:42:10;;;;;;;12.97;9.20;;;10.10;59.90;;;;;;5051485;28;20215;-50
2021/10/25 01:44:36;;;;;;;9.23;7.90;;;10.20;59.70;;;;;;5047616;28;20193;-49
2021/10/25 01:47:02;;;;;;;9.73;8.43;;;10.30;59.40;;;;;;5050090;28;20203;-48
2021/10/25 01:49:28;;;;;;;9.27;8.30;;;10.20;59.70;;;;;;5048735;28;20671;-48
2021/10/25 01:51:54;;;;;;;10.47;9.10;;;10.00;59.70;;;;;;5047489;28;20456;-47
2021/10/25 01:54:20;;;;;;;10.13;8.53;;;9.80;61.70;;;;;;5044090;28;20196;-51
2021/10/25 01:56:46;;;;;;;12.53;9.07;;;9.90;61.70;;;;;;5045692;28;20192;-48
2021/10/25 01:59:11;;;;;;;13.40;9.20;;;10.10;60.20;;;;;;5044140;28;20919;-51
2021/10/25 02:01:37;;;;;;;9.67;8.40;;;10.20;59.90;;;;;;5047137;28;20447;-51
2021/10/25 02:04:04;;;;;;;10.70;9.60;;;10.10;60.50;;;;;;5042682;28;20612;-48
2021/10/25 02:06:30;;;;;;;9.80;8.60;;;9.90;61.00;;;;;;5034785;28;20205;-50
2021/10/25 02:08:56;;;;;;;12.47;8.47;;;9.80;61.70;;;;;;5054962;28;20522;-51
2021/10/25 02:11:22;;;;;;;10.03;9.03;;;9.90;61.40;;;;;;5048151;28;20443;-52
2021/10/25 02:13:48;;;;;;;12.73;9.13;;;10.00;59.80;;;;;;5047431;28;20204;-52
2021/10/25 02:16:14;;;;;;;11.33;8.27;;;10.00;59.70;;;;;;5047885;28;20435;-51
2021/10/25 02:18:41;;;;;;;11.23;9.60;;;9.80;61.20;;;;;;5046058;28;20248;-50
2021/10/25 02:21:07;;;;;;;13.00;9.27;;;9.50;62.90;;;;;;5050985;28;20470;-50
2021/10/25 02:23:33;;;;;;;11.17;9.37;;;9.30;63.80;;;;;;5049045;28;20572;-51
2021/10/25 02:25:59;;;;;;;12.63;10.30;;;9.00;65.50;;;;;;5043465;28;20436;-53
2021/10/25 02:28:25;;;;;;;21.07;13.00;;;9.00;66.40;;;;;;5041065;28;20458;-52
2021/10/25 02:30:52;;;;;;;14.50;10.40;;;9.10;66.00;;;;;;5037250;28;20659;-53
2021/10/25 02:33:19;;;;;;;10.90;9.63;;;9.30;65.40;;;;;;5040424;28;20205;-51
2021/10/25 02:35:44;;;;;;;9.03;8.03;;;9.30;64.90;;;;;;5048975;28;20941;-50
2021/10/25 02:38:10;;;;;;;10.20;9.00;;;9.40;64.40;;;;;;5053134;28;20431;-51
2021/10/25 02:40:36;;;;;;;11.10;9.57;;;9.40;64.40;;;;;;5054267;28;20442;-51
2021/10/25 02:43:02;;;;;;;10.63;8.90;;;9.10;65.60;;;;;;5050621;28;20224;-52
2021/10/25 02:45:28;;;;;;;12.50;9.40;;;9.00;65.60;;;;;;5048406;28;20276;-52
2021/10/25 02:47:54;;;;;;;9.50;8.03;;;9.10;66.10;;;;;;5045388;28;20451;-54
2021/10/25 02:50:20;;;;;;;12.47;9.40;;;9.20;65.50;;;;;;5047657;28;20955;-52
2021/10/25 02:52:47;;;;;;;10.73;9.57;;;9.30;64.90;;;;;;5044688;28;20479;-51
2021/10/25 02:55:13;;;;;;;10.97;9.83;;;9.20;65.10;;;;;;5047471;28;20197;-48
2021/10/25 02:57:40;;;;;;;11.30;9.47;;;9.10;64.90;;;;;;5050062;28;20541;-48
2021/10/25 03:00:09;;;;;;;11.10;8.60;;;9.20;65.10;;;;;;5047209;28;20458;-51
2021/10/25 03:02:34;;;;;;;20.40;13.50;;;9.20;65.10;;;;;;5049546;28;20494;-48
2021/10/25 03:05:00;;;;;;;16.10;11.43;;;9.10;65.50;;;;;;5050814;28;20791;-48
2021/10/25 03:07:26;;;;;;;14.90;10.27;;;9.00;65.80;;;;;;5047016;28;20262;-54
2021/10/25 03:09:52;;;;;;;12.07;10.10;;;8.90;66.40;;;;;;5052523;28;20458;-49
2021/10/25 03:12:18;;;;;;;11.93;9.20;;;8.80;66.60;;;;;;5051371;28;20477;-54
2021/10/25 03:14:44;;;;;;;13.73;9.60;;;8.90;66.50;;;;;;5054291;28;20307;-50
2021/10/25 03:17:10;;;;;;;11.67;9.57;;;8.90;66.40;;;;;;5050282;28;20201;-50
2021/10/25 03:19:37;;;;;;;12.23;9.60;;;8.90;66.70;;;;;;5046254;28;20535;-48
2021/10/25 03:22:05;;;;;;;10.73;9.37;;;9.10;66.10;;;;;;5053209;28;20255;-51
2021/10/25 03:24:31;;;;;;;12.50;9.90;;;9.30;65.20;;;;;;5044119;28;20841;-52
2021/10/25 03:26:57;;;;;;;11.70;10.50;;;9.50;64.40;;;;;;5056227;28;20489;-50
2021/10/25 03:29:22;;;;;;;11.23;9.30;;;9.50;63.50;;;;;;5041210;28;20443;-53
2021/10/25 03:31:50;;;;;;;10.70;9.20;;;9.10;64.00;;;;;;5053615;28;20223;-50
2021/10/25 03:34:16;;;;;;;9.77;8.77;;;9.10;65.00;;;;;;5044163;28;20682;-54
2021/10/25 03:36:43;;;;;;;12.93;9.70;;;9.10;64.60;;;;;;5047526;28;20538;-53
2021/10/25 03:39:09;;;;;;;11.03;9.23;;;8.90;64.80;;;;;;5047634;28;20242;-53
2021/10/25 03:41:39;;;;;;;9.30;8.33;;;8.80;65.00;;;;;;5046070;28;20439;-53
2021/10/25 03:44:13;;;;;;;12.57;9.30;;;8.80;65.30;;;;;;5034615;28;20487;-54
2021/10/25 03:51:39;;;;;;;10.63;8.67;;;8.80;64.60;;;;;;5051700;28;20446;-53
2021/10/25 04:29:29;;;;;;;12.03;9.20;;;7.70;67.60;;;;;;5037790;28;20920;-53
2021/10/25 04:31:55;;;;;;;13.57;9.73;;;7.80;67.70;;;;;;5047280;28;20570;-52
2021/10/25 04:34:20;;;;;;;10.17;7.93;;;8.00;67.00;;;;;;5049625;28;20431;-53
2021/10/25 04:36:46;;;;;;;12.03;8.80;;;8.30;66.60;;;;;;5050274;28;20188;-50
2021/10/25 04:39:13;;;;;;;18.70;8.97;;;8.40;65.60;;;;;;5037788;28;20255;-52
2021/10/25 04:41:39;;;;;;;11.40;9.70;;;8.60;64.80;;;;;;5039314;28;20228;-53
2021/10/25 04:44:06;;;;;;;11.37;8.93;;;8.70;64.20;;;;;;5042165;28;20981;-54
2021/10/25 04:46:33;;;;;;;13.60;9.00;;;8.60;63.90;;;;;;5048589;28;20453;-52
2021/10/25 04:48:59;;;;;;;14.50;8.90;;;8.70;64.20;;;;;;5045060;28;20486;-49
2021/10/25 04:51:24;;;;;;;11.57;9.50;;;8.80;63.80;;;;;;5043850;28;20435;-53
2021/10/25 04:53:50;;;;;;;14.00;8.60;;;8.60;63.90;;;;;;5046434;28;20566;-50
2021/10/25 04:56:16;;;;;;;10.17;8.60;;;8.60;64.30;;;;;;5045558;28;20187;-49
2021/10/25 04:58:42;;;;;;;11.13;9.20;;;8.70;64.50;;;;;;5044917;28;20251;-51
2021/10/25 05:01:08;;;;;;;11.97;9.07;;;8.80;64.10;;;;;;5043219;28;20197;-53
2021/10/25 05:03:35;;;;;;;10.40;8.53;;;8.30;65.30;;;;;;5043204;28;20992;-53
2021/10/25 05:06:03;;;;;;;13.70;9.70;;;8.10;66.30;;;;;;5051503;28;20662;-52
2021/10/25 05:08:28;;;;;;;13.00;9.77;;;8.40;66.30;;;;;;5051582;28;21265;-50
2021/10/25 05:10:55;;;;;;;11.83;9.33;;;8.30;65.40;;;;;;5053401;28;20442;-52
2021/10/25 05:13:21;;;;;;;12.83;10.10;;;8.00;67.20;;;;;;5040534;28;20219;-50
2021/10/25 05:15:47;;;;;;;15.10;10.37;;;8.00;67.00;;;;;;5049349;28;20466;-52
2021/10/25 05:18:13;;;;;;;13.00;9.47;;;8.10;66.40;;;;;;5055708;28;20196;-51
2021/10/25 05:20:40;;;;;;;12.17;9.17;;;7.90;66.60;;;;;;5048319;28;20492;-49
2021/10/25 05:23:07;;;;;;;14.07;8.10;;;8.10;66.60;;;;;;5051182;28;20499;-49
2021/10/25 05:25:33;;;;;;;12.10;9.00;;;8.40;68.30;;;;;;5047565;28;20504;-52
2021/10/25 05:27:58;;;;;;;14.30;9.27;;;8.90;68.70;;;;;;5046955;28;20450;-50
2021/10/25 05:30:24;;;;;;;12.33;9.03;;;9.20;68.20;;;;;;5041435;28;20454;-50
2021/10/25 05:32:50;;;;;;;11.07;9.50;;;9.40;66.80;;;;;;5070545;28;20708;-49
2021/10/25 05:35:15;;;;;;;13.53;9.30;;;9.40;63.70;;;;;;5048153;28;20192;-50
2021/10/25 05:37:41;;;;;;;9.83;8.43;;;9.50;64.80;;;;;;5040821;28;20648;-51
2021/10/25 05:40:07;;;;;;;9.50;8.40;;;9.50;63.80;;;;;;5046433;28;20188;-52
2021/10/25 05:42:33;;;;;;;11.43;8.77;;;9.70;64.80;;;;;;5053877;28;20224;-52
2021/10/25 05:44:59;;;;;;;11.50;9.03;;;10.00;62.60;;;;;;5046804;28;20458;-52
2021/10/25 05:47:25;;;;;;;10.67;9.13;;;10.10;62.90;;;;;;5039926;28;20450;-48
2021/10/25 05:49:50;;;;;;;11.17;8.93;;;10.30;61.10;;;;;;5046622;28;20529;-48
2021/10/25 05:52:16;;;;;;;21.27;12.40;;;10.40;60.60;;;;;;5039956;28;20204;-48
2021/10/25 05:54:41;;;;;;;13.30;10.30;;;10.60;59.30;;;;;;5039799;28;20200;-50
2021/10/25 05:57:07;;;;;;;14.00;10.60;;;10.60;58.70;;;;;;5039152;28;20203;-49
2021/10/25 05:59:34;;;;;;;11.27;8.70;;;10.60;58.30;;;;;;5043734;28;20242;-50
2021/10/25 06:02:18;;;;;;;9.80;8.17;;;10.50;58.20;;;;;;5051261;28;20193;-49
2021/10/25 06:04:44;;;;;;;11.07;9.30;;;10.40;57.90;;;;;;5043393;28;20439;-49
2021/10/25 06:07:09;;;;;;;10.80;8.73;;;10.30;57.70;;;;;;5036525;28;20862;-48
2021/10/25 06:09:36;;;;;;;10.37;9.07;;;10.30;58.30;;;;;;5041449;28;20227;-49
2021/10/25 06:12:06;;;;;;;10.50;9.40;;;10.40;57.90;;;;;;5038022;28;20206;-50
2021/10/25 06:14:37;;;;;;;12.90;9.20;;;10.40;57.90;;;;;;5033081;28;20467;-49
2021/10/25 06:17:08;;;;;;;11.27;8.83;;;10.50;57.80;;;;;;5046861;28;20443;-53
2021/10/25 06:19:34;;;;;;;11.60;9.63;;;10.60;57.30;;;;;;5040173;28;20498;-48
2021/10/25 06:21:59;;;;;;;10.87;8.73;;;10.40;57.50;;;;;;5042125;28;20439;-49
2021/10/25 06:24:25;;;;;;;11.70;10.13;;;10.20;58.00;;;;;;5040216;28;20195;-53
2021/10/25 06:26:50;;;;;;;9.93;8.10;;;9.60;59.80;;;;;;5040655;28;20219;-52
2021/10/25 06:29:16;;;;;;;9.87;8.87;;;9.70;60.60;;;;;;5038021;28;20193;-53
2021/10/25 06:31:42;;;;;;;10.33;9.30;;;10.00;59.10;;;;;;5042298;28;20188;-48
2021/10/25 06:34:11;;;;;;;10.43;8.47;;;10.10;58.30;;;;;;5042314;28;20202;-51
2021/10/25 06:36:37;;;;;;;14.70;11.20;;;10.30;58.30;;;;;;5047660;28;20193;-51
2021/10/25 06:39:14;;;;;;;14.33;10.10;;;10.30;57.40;;;;;;5048103;28;20521;-52
2021/10/25 06:41:40;;;;;;;15.63;10.77;;;10.40;57.40;;;;;;5043745;28;20431;-49
2021/10/25 06:44:06;;;;;;;12.20;9.20;;;10.30;57.70;;;;;;5035211;28;20479;-52
2021/10/25 06:46:32;;;;;;;11.17;9.97;;;10.00;58.30;;;;;;5041854;28;20186;-48
2021/10/25 06:48:58;;;;;;;14.30;10.43;;;9.70;60.00;;;;;;5044654;28;20193;-50
2021/10/25 06:51:23;;;;;;;17.30;10.00;;;9.80;62.50;;;;;;5041776;28;20485;-52
2021/10/25 06:53:49;;;;;;;10.87;8.83;;;10.10;62.70;;;;;;5041619;28;20279;-52
2021/10/25 06:56:15;;;;;;;15.43;9.23;;;10.50;61.20;;;;;;5043867;28;20197;-49
2021/10/25 06:58:40;;;;;;;12.97;8.40;;;10.50;60.00;;;;;;5036066;28;20237;-48
2021/10/25 07:01:06;;;;;;;10.03;8.60;;;10.80;59.70;;;;;;5043197;28;20207;-50
2021/10/25 07:03:31;;;;;;;9.40;8.37;;;10.90;59.10;;;;;;5040706;28;20221;-51
2021/10/25 07:06:00;;;;;;;9.97;8.97;;;11.00;58.50;;;;;;5047107;28;20565;-51
2021/10/25 07:08:28;;;;;;;10.90;8.43;;;11.30;58.00;;;;;;5057283;28;20239;-48
2021/10/25 07:10:54;;;;;;;11.37;9.10;;;11.60;57.50;;;;;;5046383;28;20995;-51
2021/10/25 07:13:20;;;;;;;9.53;8.13;;;11.90;57.00;;;;;;5051278;28;20435;-50
2021/10/25 07:15:50;;;;;;;10.80;9.70;;;12.00;56.30;;;;;;5038283;28;20616;-48
2021/10/25 07:23:59;;;;;;;13.20;8.33;;;12.00;56.00;;;;;;5052880;28;20577;-50
2021/10/25 08:03:07;;;;;;;11.50;10.30;;;12.90;56.90;;;;;;5046696;28;20523;-48
2021/10/25 08:09:48;;;;;;;10.30;8.90;;;13.20;56.80;;;;;;5042730;28;20485;-51
2021/10/25 08:12:17;;;;;;;10.53;9.43;;;13.20;56.30;;;;;;5046980;28;20236;-49
2021/10/25 08:14:49;;;;;;;17.03;9.97;;;13.00;57.30;;;;;;5048372;28;20435;-48
2021/10/25 08:17:19;;;;;;;8.70;7.80;;;13.00;57.70;;;;;;5037392;28;20931;-48
2021/10/25 08:19:46;;;;;;;11.20;9.50;;;13.30;57.50;;;;;;5034590;28;20467;-48
2021/10/25 08:22:15;;;;;;;10.03;9.03;;;13.50;57.30;;;;;;5037920;28;20420;-48
2021/10/25 08:24:44;;;;;;;9.67;8.67;;;13.40;56.40;;;;;;5040034;28;20436;-48
2021/10/25 08:27:11;;;;;;;10.70;9.60;;;13.30;57.60;;;;;;5039626;28;20534;-50
2021/10/25 08:29:40;;;;;;;10.33;8.90;;;13.50;57.50;;;;;;5043050;28;20432;-47
2021/10/25 08:39:57;;;;;;;9.57;8.50;;;13.60;56.30;;;;;;5047199;28;20216;-48
2021/10/25 08:42:33;;;;;;;12.00;9.80;;;13.80;55.80;;;;;;5043630;28;20490;-50
2021/10/25 08:45:07;;;;;;;10.73;9.63;;;13.80;55.40;;;;;;5050865;28;20543;-47
2021/10/25 08:47:38;;;;;;;12.23;9.60;;;13.30;56.30;;;;;;5046512;28;21041;-49
2021/10/25 08:50:06;;;;;;;10.70;9.60;;;13.50;56.70;;;;;;5044490;28;20439;-51
2021/10/25 08:52:32;;;;;;;8.83;7.93;;;13.50;55.70;;;;;;5041374;28;20431;-50
2021/10/25 08:55:01;;;;;;;12.03;9.27;;;13.50;55.90;;;;;;5042666;28;20953;-52
2021/10/25 08:57:27;;;;;;;9.77;8.87;;;13.50;55.50;;;;;;5050031;28;20207;-53
2021/10/25 09:00:00;;;;;;;10.33;9.30;;;13.40;56.00;;;;;;5049218;28;20432;-48
2021/10/25 09:02:29;;;;;;;10.20;8.20;;;13.40;56.10;;;;;;5037219;28;20247;-52
2021/10/25 09:04:59;;;;;;;10.80;9.43;;;13.60;55.80;;;;;;5043297;28;20525;-51
2021/10/25 09:07:24;;;;;;;10.43;8.37;;;13.80;55.50;;;;;;5042461;28;20450;-50
2021/10/25 09:09:50;;;;;;;9.90;8.90;;;13.90;55.10;;;;;;5041780;28;20447;-51
2021/10/25 09:12:17;;;;;;;9.90;8.10;;;13.90;54.70;;;;;;5046855;28;20188;-52
2021/10/25 09:14:42;;;;;;;10.57;9.47;;;14.00;55.40;;;;;;5043668;28;20258;-49
2021/10/25 09:17:09;;;;;;;9.70;8.73;;;13.90;55.10;;;;;;5043294;28;20435;-52
2021/10/25 09:19:38;;;;;;;9.47;8.57;;;14.20;55.10;;;;;;5036731;28;20236;-52
2021/10/25 09:22:15;;;;;;;9.03;8.13;;;14.20;54.70;;;;;;5045048;28;20843;-52
2021/10/25 09:24:51;;;;;;;9.60;8.47;;;14.30;54.40;;;;;;5039423;28;20444;-53
2021/10/25 09:27:33;;;;;;;9.47;8.50;;;14.30;54.40;;;;;;5037821;28;20427;-50
2021/10/25 09:30:16;;;;;;;14.23;8.70;;;14.50;54.70;;;;;;5038328;28;20825;-48
2021/10/25 09:32:45;;;;;;;8.33;7.50;;;14.70;54.20;;;;;;5045754;28;20449;-52
2021/10/25 09:35:25;;;;;;;9.83;7.70;;;14.80;53.80;;;;;;5045314;28;20431;-49
2021/10/25 09:38:06;;;;;;;9.43;7.70;;;15.10;53.30;;;;;;5046802;28;20473;-51
2021/10/25 09:46:05;;;;;;;8.40;7.60;;;15.20;53.00;;;;;;5042735;28;20443;-49
2021/10/25 09:51:16;;;;;;;6.70;6.10;;;15.60;52.10;;;;;;5040260;28;20454;-51
2021/10/25 09:53:45;;;;;;;5.97;5.47;;;15.70;51.90;;;;;;5031265;28;20861;-47
2021/10/25 09:56:12;;;;;;;7.70;6.93;;;15.60;51.40;;;;;;5042971;28;20440;-50
2021/10/25 09:58:48;;;;;;;6.40;5.90;;;15.40;51.70;;;;;;5044204;28;20450;-50
2021/10/25 10:01:15;;;;;;;7.60;5.70;;;15.40;52.10;;;;;;5048752;28;20435;-51
2021/10/25 10:03:45;;;;;;;8.50;7.40;;;15.70;51.70;;;;;;5044715;28;20495;-49
2021/10/25 10:06:11;;;;;;;6.70;6.00;;;15.80;51.50;;;;;;5044393;28;20431;-50
2021/10/25 10:08:38;;;;;;;8.10;6.40;;;16.20;51.00;;;;;;5046825;28;20454;-51
2021/10/25 10:11:05;;;;;;;7.83;7.03;;;16.50;50.70;;;;;;5041293;28;20438;-44
2021/10/25 10:13:31;;;;;;;7.40;6.70;;;16.90;50.40;;;;;;5050593;28;20948;-51
2021/10/25 10:15:58;;;;;;;6.30;5.70;;;17.10;49.10;;;;;;5046653;28;20818;-52
2021/10/25 10:18:28;;;;;;;6.00;5.40;;;17.20;48.60;;;;;;5060623;28;20434;-51
2021/10/25 10:21:00;;;;;;;6.60;5.93;;;17.50;48.10;;;;;;5041205;28;20927;-50
2021/10/25 10:23:26;;;;;;;7.70;7.00;;;17.60;48.00;;;;;;5041699;28;20582;-48
2021/10/25 10:25:55;;;;;;;7.03;6.43;;;17.90;48.10;;;;;;5039845;28;20427;-49
2021/10/25 10:28:51;;;;;;;7.00;5.23;;;18.20;47.30;;;;;;5045069;28;20636;-47
2021/10/25 10:31:24;;;;;;;5.33;4.83;;;18.30;45.70;;;;;;5047846;28;20932;-45
2021/10/25 10:33:54;;;;;;;7.70;6.33;;;18.30;46.00;;;;;;5041678;28;20454;-48
2021/10/25 10:36:34;;;;;;;9.63;6.20;;;18.50;46.50;;;;;;5048232;28;20861;-45
2021/10/25 10:39:09;;;;;;;6.83;5.60;;;18.80;46.30;;;;;;5046137;28;20438;-47
2021/10/25 10:41:36;;;;;;;5.23;4.80;;;18.90;46.80;;;;;;5044586;28;20453;-47
2021/10/25 10:44:07;;;;;;;5.03;4.47;;;19.00;45.10;;;;;;5040013;28;20479;-48
2021/10/25 10:47:03;;;;;;;5.10;4.53;;;19.10;46.90;;;;;;5043483;28;20471;-45
2021/10/25 10:49:30;;;;;;;5.33;4.80;;;19.30;44.70;;;;;;5044090;28;20439;-46
2021/10/25 10:55:15;;;;;;;5.27;4.77;;;19.30;45.40;;;;;;5042317;28;20802;-46
2021/10/25 11:00:50;;;;;;;7.43;4.50;;;18.90;47.30;;;;;;5048834;28;20442;-47
2021/10/25 11:03:26;;;;;;;7.07;4.13;;;19.30;46.90;;;;;;5052446;28;20537;-49
2021/10/25 11:06:01;;;;;;;3.90;3.57;;;19.80;44.60;;;;;;5036911;28;20450;-47
2021/10/25 11:08:41;;;;;;;4.00;3.53;;;20.20;45.20;;;;;;5043574;28;20426;-46
2021/10/25 11:11:20;;;;;;;4.17;3.57;;;20.60;44.30;;;;;;5050755;28;20807;-46
2021/10/25 11:13:59;;;;;;;4.27;3.87;;;20.70;44.10;;;;;;5043376;28;20490;-47
2021/10/25 11:16:34;;;;;;;4.50;4.10;;;21.10;43.30;;;;;;5043666;28;20439;-50
2021/10/25 11:19:02;;;;;;;4.07;3.67;;;21.10;42.60;;;;;;5051198;28;20495;-46
2021/10/25 11:21:39;;;;;;;3.73;3.27;;;21.30;42.30;;;;;;5049459;28;20501;-47
2021/10/25 11:24:08;;;;;;;3.67;3.37;;;21.50;42.20;;;;;;5034276;28;20494;-48
2021/10/25 11:26:40;;;;;;;3.80;3.50;;;21.80;42.00;;;;;;5049760;28;20514;-45
2021/10/25 11:29:07;;;;;;;3.93;3.27;;;22.10;41.40;;;;;;5044913;28;21153;-51
2021/10/25 11:31:38;;;;;;;4.57;4.17;;;22.40;41.30;;;;;;5041535;28;20501;-45
2021/10/25 11:34:14;;;;;;;5.33;3.70;;;22.60;40.40;;;;;;5048894;28;20459;-47
2021/10/25 11:37:05;;;;;;;4.37;3.70;;;22.70;39.20;;;;;;5052045;28;20470;-46
2021/10/25 11:39:45;;;;;;;4.00;3.70;;;22.70;39.30;;;;;;5047075;28;20432;-46
2021/10/25 11:42:16;;;;;;;4.40;3.50;;;22.80;40.30;;;;;;5047652;28;20431;-49
2021/10/25 11:44:46;;;;;;;4.77;3.97;;;23.00;39.60;;;;;;5049997;28;20580;-47
2021/10/25 11:47:21;;;;;;;4.90;3.40;;;23.20;39.40;;;;;;5043701;28;20443;-47
2021/10/25 11:49:53;;;;;;;3.50;2.93;;;23.40;39.00;;;;;;5042465;28;20832;-46
2021/10/25 11:52:19;;;;;;;4.20;3.80;;;23.50;37.50;;;;;;5044355;28;20566;-49
2021/10/25 11:54:50;;;;;;;4.33;3.93;;;23.60;37.30;;;;;;5052834;28;20514;-51
2021/10/25 11:57:18;;;;;;;5.43;3.40;;;23.70;37.80;;;;;;5046486;28;20476;-49
2021/10/25 11:59:57;;;;;;;2.87;2.67;;;23.80;37.00;;;;;;5051254;28;20584;-46
2021/10/25 12:02:23;;;;;;;3.10;2.80;;;23.90;36.70;;;;;;5047486;28;20475;-46
2021/10/25 12:04:50;;;;;;;3.20;3.00;;;24.10;36.10;;;;;;5053229;28;21116;-47
2021/10/25 12:07:16;;;;;;;3.10;2.90;;;24.30;34.90;;;;;;5050465;28;20435;-45
2021/10/25 12:09:41;;;;;;;2.90;2.70;;;24.40;35.10;;;;;;5055872;28;20442;-49
2021/10/25 12:12:14;;;;;;;2.30;2.20;;;24.40;34.00;;;;;;5083609;28;20215;-50
2021/10/25 12:14:43;;;;;;;2.73;2.53;;;24.40;33.60;;;;;;5049529;28;20204;-49
2021/10/25 12:17:11;;;;;;;3.07;2.67;;;24.40;33.70;;;;;;5038492;28;20441;-49
2021/10/25 12:19:41;;;;;;;2.23;2.03;;;24.40;33.70;;;;;;5045027;28;20522;-47
2021/10/25 12:22:18;;;;;;;2.90;2.63;;;24.50;34.10;;;;;;5052367;28;20420;-48
2021/10/25 12:24:46;;;;;;;2.33;2.13;;;24.70;33.50;;;;;;5047063;28;20829;-50
2021/10/25 12:27:15;;;;;;;2.80;2.10;;;24.80;31.20;;;;;;5046139;28;20443;-50
2021/10/25 12:29:42;;;;;;;2.73;2.53;;;24.60;34.30;;;;;;5050354;28;20432;-48
2021/10/25 12:32:11;;;;;;;2.97;2.70;;;24.80;32.40;;;;;;5043058;28;20819;-48
2021/10/25 12:34:48;;;;;;;3.70;2.47;;;24.90;32.60;;;;;;5037953;28;20432;-50
2021/10/25 12:37:18;;;;;;;2.63;2.43;;;25.00;32.00;;;;;;5062099;28;20438;-49
2021/10/25 12:39:44;;;;;;;3.20;2.70;;;25.10;31.20;;;;;;5047456;28;20447;-50
2021/10/25 12:42:10;;;;;;;3.00;2.70;;;25.00;30.90;;;;;;5048731;28;20436;-48
2021/10/25 12:44:41;;;;;;;2.40;2.07;;;25.00;30.50;;;;;;5051499;28;20211;-46
2021/10/25 12:47:12;;;;;;;3.70;2.30;;;24.90;30.10;;;;;;5049153;28;20271;-47
2021/10/25 12:49:38;;;;;;;3.00;2.70;;;24.80;30.40;;;;;;5063819;28;21180;-48
2021/10/25 12:52:06;;;;;;;3.37;2.80;;;24.80;30.60;;;;;;5046549;28;20807;-49
2021/10/25 12:54:37;;;;;;;2.90;2.47;;;24.70;31.50;;;;;;5048569;28;20518;-47
2021/10/25 12:57:15;;;;;;;2.53;2.03;;;24.70;31.70;;;;;;5047277;28;20431;-50
2021/10/25 12:59:41;;;;;;;2.77;2.57;;;24.60;32.20;;;;;;5042649;28;20484;-49
2021/10/25 13:02:09;;;;;;;5.43;3.20;;;24.60;32.70;;;;;;5042435;28;20462;-48
2021/10/25 13:04:35;;;;;;;2.93;2.33;;;24.60;33.20;;;;;;5039517;28;20215;-49
2021/10/25 13:07:14;;;;;;;3.23;2.60;;;24.60;33.10;;;;;;5047667;28;20458;-45
2021/10/25 13:09:50;;;;;;;8.43;2.93;;;24.50;32.50;;;;;;5045831;28;20474;-48
2021/10/25 13:12:16;;;;;;;3.40;2.30;;;24.50;32.60;;;;;;5047325;28;20437;-48
2021/10/25 13:14:41;;;;;;;3.27;2.97;;;24.50;32.70;;;;;;5047957;28;21273;-46
2021/10/25 13:17:07;;;;;;;2.37;2.17;;;24.40;31.80;;;;;;5046762;28;20220;-45
2021/10/25 13:19:33;;;;;;;4.53;2.83;;;24.30;31.30;;;;;;5043608;28;20271;-50
2021/10/25 13:21:59;;;;;;;4.00;2.50;;;24.30;31.20;;;;;;5047292;28;20459;-44
2021/10/25 13:24:24;;;;;;;2.90;2.63;;;24.30;31.40;;;;;;5049812;28;20228;-49
2021/10/25 13:26:51;;;;;;;4.70;2.40;;;24.30;31.60;;;;;;5040320;28;20200;-47
2021/10/25 13:29:17;;;;;;;3.63;2.80;;;24.50;31.30;;;;;;5035630;28;20199;-49
2021/10/25 13:31:43;;;;;;;2.50;2.30;;;24.60;31.20;;;;;;5049094;28;20925;-49
2021/10/25 13:34:08;;;;;;;2.33;2.20;;;24.70;31.20;;;;;;5050826;28;20474;-49
2021/10/25 13:36:35;;;;;;;2.73;2.53;;;24.80;31.40;;;;;;5043332;28;20247;-48
2021/10/25 13:39:00;;;;;;;2.30;2.10;;;25.00;32.30;;;;;;5041376;28;20197;-48
2021/10/25 13:41:26;;;;;;;2.80;2.30;;;25.10;31.30;;;;;;5043682;28;20450;-49
2021/10/25 13:43:52;;;;;;;3.27;2.23;;;25.20;31.00;;;;;;5038588;28;20238;-47
2021/10/25 13:46:19;;;;;;;4.07;2.50;;;25.20;31.30;;;;;;5043386;28;20998;-49
2021/10/25 13:48:44;;;;;;;3.17;2.90;;;25.40;32.00;;;;;;5044226;28;20560;-47
2021/10/25 13:51:10;;;;;;;2.80;2.60;;;25.40;31.20;;;;;;5039048;28;20451;-51
2021/10/25 13:53:36;;;;;;;2.70;2.27;;;25.20;31.00;;;;;;5040187;28;20660;-46
2021/10/25 13:56:04;;;;;;;3.87;2.23;;;25.10;31.70;;;;;;5040650;28;20203;-46
2021/10/25 13:58:29;;;;;;;2.63;2.20;;;25.30;31.50;;;;;;5043186;28;20434;-48
2021/10/25 14:00:55;;;;;;;2.90;2.53;;;25.50;32.10;;;;;;5045794;28;20442;-50
2021/10/25 14:03:20;;;;;;;3.93;2.47;;;25.70;32.20;;;;;;5046874;28;20263;-46
2021/10/25 14:05:48;;;;;;;3.00;2.70;;;25.80;31.00;;;;;;5041982;28;20231;-46
2021/10/25 14:08:15;;;;;;;2.97;2.77;;;25.90;31.50;;;;;;5032660;28;20701;-46
2021/10/25 14:10:44;;;;;;;2.57;2.37;;;26.00;31.60;;;;;;5051285;28;20435;-49
2021/10/25 14:13:18;;;;;;;5.63;1.90;;;26.10;30.00;;;;;;5039227;28;20444;-47
2021/10/25 14:15:48;;;;;;;4.27;2.40;;;26.10;28.80;;;;;;5054862;28;20933;-46
2021/10/25 14:18:14;;;;;;;2.60;2.37;;;26.10;28.80;;;;;;5042977;28;20998;-49
2021/10/25 14:20:41;;;;;;;3.83;3.43;;;26.00;29.50;;;;;;5051373;28;20524;-46
2021/10/25 14:23:09;;;;;;;3.37;2.60;;;26.00;29.30;;;;;;5043121;28;20494;-46
2021/10/25 14:25:35;;;;;;;3.00;2.80;;;26.00;29.60;;;;;;5040842;28;20810;-48
2021/10/25 14:28:02;;;;;;;2.53;2.30;;;25.90;29.80;;;;;;5058006;28;20447;-48
2021/10/25 14:30:27;;;;;;;2.37;2.20;;;25.90;29.70;;;;;;5053092;28;20184;-50
2021/10/25 14:32:53;;;;;;;3.40;2.30;;;25.90;29.70;;;;;;5046845;28;20875;-46
2021/10/25 14:35:20;;;;;;;2.70;2.50;;;26.00;29.40;;;;;;5040273;28;20432;-46
2021/10/25 14:37:46;;;;;;;2.77;2.37;;;25.90;29.50;;;;;;5048083;28;20199;-49